Time;durP1;ratioP1;P1;durP2;ratioP2;P2;SDS_P1;SDS_P2;PMS_P1;PMS_P2;Temp;Humidity;BMP_temperature;BMP_pressure;BME280_temperature;BME280_humidity;BME280_pressure;Samples;Min_cycle;Max_cycle;Signal;HPM_P1;HPM_P2
2022/02/02 00:02:06;;;;;;;1.20;1.10;;;4.50;81.70;;;3.57;68.88;93709.88;4988211;28;20619;-91
2022/02/02 00:04:50;;;;;;;1.15;1.08;;;4.50;81.70;;;3.51;69.04;93701.00;4981379;28;20221;-90
2022/02/02 00:07:48;;;;;;;1.25;1.15;;;4.50;81.70;;;3.53;68.68;93691.28;4973382;28;20224;-91
2022/02/02 00:23:01;;;;;;;1.75;1.10;;;4.50;81.50;;;3.64;68.20;93679.66;4978969;28;20212;-91
2022/02/02 01:02:18;;;;;;;;;;;;;;;;;;;;;
2022/02/02 01:28:20;;;;;;;1.55;1.00;;;4.80;81.60;;;3.61;68.58;93685.19;6116182;23;20257;-90
2022/02/02 01:30:55;;;;;;;1.00;1.00;;;4.70;81.40;;;3.58;68.67;93696.72;6085043;23;20205;-91
2022/02/02 01:33:29;;;;;;;1.08;1.08;;;4.70;81.50;;;3.58;68.63;93693.34;6082548;23;20201;-89
2022/02/02 01:36:01;;;;;;;1.00;0.95;;;4.70;81.50;;;3.69;69.11;93727.38;6104339;23;20197;-89
2022/02/02 01:38:34;;;;;;;1.40;1.13;;;4.70;81.60;;;3.51;69.10;93706.19;6060219;23;20190;-90
2022/02/02 01:41:11;;;;;;;1.00;1.00;;;4.70;81.70;;;3.57;69.19;93709.88;6084301;23;20197;-89
2022/02/02 01:46:35;;;;;;;1.00;1.00;;;4.70;81.80;;;3.50;69.22;93701.97;6111635;23;20178;-91
2022/02/02 01:54:50;;;;;;;0.95;0.95;;;4.60;82.00;;;3.43;70.22;93694.13;6107516;23;20221;-91
2022/02/02 02:00:12;;;;;;;0.93;0.93;;;4.60;82.30;;;3.52;69.73;93718.97;6112468;23;20196;-89
2022/02/02 02:02:43;;;;;;;1.27;1.10;;;4.60;82.30;;;3.52;70.29;93721.56;6138425;23;20616;-89
2022/02/02 02:05:12;;;;;;;1.05;1.05;;;4.60;82.50;;;3.53;70.13;93730.16;6113559;23;20192;-91
2022/02/02 02:07:42;;;;;;;1.40;1.30;;;4.60;82.50;;;3.57;70.03;93715.06;6137601;23;20184;-89
2022/02/02 02:10:23;;;;;;;1.48;1.23;;;4.60;82.50;;;3.59;70.35;93736.41;6113260;23;20196;-92
2022/02/02 02:13:11;;;;;;;1.20;1.15;;;4.60;82.60;;;3.63;70.58;93728.09;6138112;23;20173;-90
2022/02/02 02:15:51;;;;;;;1.52;1.40;;;4.60;82.70;;;3.58;70.36;93734.81;6126821;23;20236;-91
2022/02/02 02:19:10;;;;;;;1.55;1.30;;;4.60;82.60;;;3.63;70.00;93737.66;6105521;23;20198;-91
2022/02/02 02:21:59;;;;;;;1.70;1.40;;;4.70;82.70;;;3.56;70.30;93721.22;6125741;23;20719;-90
2022/02/02 02:24:41;;;;;;;2.30;1.40;;;4.70;82.60;;;3.60;70.31;93736.25;6125591;23;20599;-90
2022/02/02 02:27:37;;;;;;;1.55;1.45;;;4.70;82.60;;;3.63;70.15;93733.28;6102920;23;20178;-91
2022/02/02 02:30:51;;;;;;;2.00;1.30;;;4.70;82.60;;;3.72;70.62;93738.38;6071608;23;20202;-91
2022/02/02 02:55:57;;;;;;;4.30;1.52;;;4.90;82.70;;;3.74;70.22;93724.25;6124703;23;20198;-90
2022/02/02 04:02:47;;;;;;;2.55;1.30;;;5.10;82.60;;;3.82;70.48;93708.59;5805333;24;20245;-88
2022/02/02 04:05:46;;;;;;;3.92;1.48;;;5.20;82.50;;;3.84;69.96;93721.38;5903122;24;20206;-88
2022/02/02 04:08:30;;;;;;;2.42;1.33;;;5.10;82.30;;;3.71;70.30;93706.47;6012393;23;20203;-87
2022/02/02 04:11:02;;;;;;;1.55;1.20;;;5.10;82.40;;;3.76;70.23;93709.31;5995455;23;20673;-88
2022/02/02 04:14:09;;;;;;;2.35;1.40;;;5.10;82.40;;;3.74;70.50;93723.47;6042036;23;20176;-86
2022/02/02 04:51:17;;;;;;;0.90;0.90;;;4.50;82.50;;;3.11;71.39;93714.16;6109609;23;20566;-86
2022/02/02 05:06:39;;;;;;;1.58;1.48;;;4.30;84.60;;;3.31;71.87;93753.34;6153537;23;20207;-87
2022/02/02 05:17:39;;;;;;;3.50;2.13;;;4.50;84.30;;;3.51;72.43;93795.13;6129239;23;20627;-88
2022/02/02 05:49:05;;;;;;;4.90;2.00;;;4.80;83.80;;;3.65;71.58;93767.63;6149746;23;20261;-87
2022/02/02 05:51:49;;;;;;;3.10;1.65;;;4.80;83.80;;;3.68;71.41;93776.84;6152699;23;20191;-88
2022/02/02 05:54:19;;;;;;;3.00;1.83;;;4.80;83.70;;;3.73;71.66;93784.09;6107566;23;20249;-86
2022/02/02 05:56:56;;;;;;;3.22;1.70;;;4.80;83.70;;;3.61;71.57;93766.34;6080140;23;20173;-88
2022/02/02 05:59:29;;;;;;;4.32;1.73;;;4.80;83.60;;;3.62;71.46;93767.16;6152669;23;20197;-88
2022/02/02 06:01:58;;;;;;;6.30;2.47;;;4.90;83.70;;;3.73;71.77;93791.88;6155181;23;20513;-88
2022/02/02 06:04:30;;;;;;;3.63;1.73;;;4.90;83.60;;;3.79;71.58;93799.72;6130721;23;20288;-87
2022/02/02 06:07:03;;;;;;;3.58;1.77;;;4.90;83.70;;;3.75;71.44;93801.06;6108765;23;20193;-89
2022/02/02 06:09:38;;;;;;;4.15;1.90;;;4.90;83.70;;;3.68;71.45;93782.81;6131317;23;20217;-88
2022/02/02 06:12:10;;;;;;;5.50;2.00;;;4.90;83.60;;;3.72;71.01;93788.44;6107552;23;20237;-88
2022/02/02 06:14:43;;;;;;;5.18;1.90;;;4.90;83.60;;;3.71;71.13;93786.03;6083241;23;20540;-88
2022/02/02 06:17:13;;;;;;;5.60;1.80;;;5.00;83.70;;;3.71;71.48;93796.41;6107821;23;20264;-86
2022/02/02 06:19:42;;;;;;;6.13;2.10;;;4.90;83.60;;;3.81;71.77;93817.72;6132319;23;20268;-88
2022/02/02 06:22:32;;;;;;;4.65;1.80;;;4.90;83.80;;;3.82;71.61;93820.13;6083817;23;20236;-88
2022/02/02 06:25:15;;;;;;;3.85;1.92;;;5.00;83.80;;;3.77;71.73;93800.88;6083191;23;20287;-87
2022/02/02 06:27:47;;;;;;;3.92;1.80;;;5.00;83.90;;;3.85;71.49;93824.16;6106652;23;20203;-87
2022/02/02 06:30:17;;;;;;;6.28;2.30;;;5.00;83.90;;;3.78;71.35;93802.50;6106923;23;20189;-88
2022/02/02 06:32:52;;;;;;;4.32;2.00;;;5.00;83.80;;;3.91;71.54;93833.03;6154503;23;20663;-88
2022/02/02 06:35:26;;;;;;;3.35;1.60;;;5.00;83.90;;;3.89;71.48;93845.38;6130115;23;20201;-86
2022/02/02 06:37:54;;;;;;;5.32;2.15;;;5.00;83.80;;;3.95;71.68;93850.63;6106307;23;20205;-87
2022/02/02 06:40:23;;;;;;;5.53;2.03;;;5.00;83.80;;;3.89;70.94;93832.41;6106059;23;20662;-88
2022/02/02 06:42:54;;;;;;;3.95;1.90;;;5.00;83.50;;;3.81;71.25;93844.47;6154651;23;20196;-87
2022/02/02 06:45:24;;;;;;;4.13;1.60;;;5.00;83.40;;;3.69;70.85;93828.50;6082171;23;20280;-86
2022/02/02 06:47:52;;;;;;;5.75;2.10;;;5.00;83.40;;;3.67;70.86;93814.13;6130181;23;20200;-87
2022/02/02 06:50:27;;;;;;;3.47;1.60;;;5.00;83.20;;;3.70;71.30;93834.53;6129643;23;20224;-85
2022/02/02 06:53:26;;;;;;;3.00;1.80;;;4.90;83.30;;;3.66;71.24;93835.84;6107922;23;20268;-87
2022/02/02 06:56:29;;;;;;;3.70;1.70;;;4.90;83.40;;;3.51;70.32;93846.97;6105959;23;20205;-87
2022/02/02 07:02:11;;;;;;;3.65;1.60;;;4.90;83.10;;;3.41;71.07;93837.84;6105670;23;20256;-86
2022/02/02 07:05:14;;;;;;;5.18;1.95;;;4.80;83.00;;;3.34;70.94;93835.97;6154396;23;20201;-85
2022/02/02 07:08:33;;;;;;;2.70;1.50;;;4.80;83.10;;;3.44;70.87;93858.22;6154457;23;20596;-86
2022/02/02 07:13:59;;;;;;;3.95;1.75;;;4.60;83.30;;;3.36;72.08;93870.25;6129712;23;20173;-85
2022/02/02 07:16:48;;;;;;;4.93;1.90;;;4.60;83.70;;;3.31;72.00;93843.28;6104906;23;20184;-85
2022/02/02 07:27:58;;;;;;;9.32;2.15;;;4.60;84.60;;;3.69;72.93;93864.03;6128233;23;20191;-85
2022/02/02 07:33:18;;;;;;;4.93;2.10;;;4.70;84.80;;;3.74;72.39;93846.16;6106059;23;20181;-87
2022/02/02 07:36:00;;;;;;;5.03;2.00;;;4.80;85.00;;;3.91;72.67;93877.13;6081544;23;20715;-87
2022/02/02 07:39:16;;;;;;;9.02;2.53;;;4.90;85.10;;;3.97;72.52;93866.84;6155387;23;20621;-86
2022/02/02 07:41:47;;;;;;;8.02;2.13;;;4.90;85.10;;;4.04;72.45;93864.38;6130078;23;20698;-85
2022/02/02 07:44:30;;;;;;;5.78;2.42;;;5.00;85.10;;;4.05;72.15;93858.16;6131251;23;20205;-85
2022/02/02 07:47:01;;;;;;;10.55;2.45;;;5.00;85.00;;;4.05;72.20;93863.34;6108022;23;20177;-86
2022/02/02 07:49:32;;;;;;;9.95;2.47;;;5.10;84.90;;;4.17;72.33;93871.50;6128042;23;20280;-86
2022/02/02 07:52:00;;;;;;;7.85;2.72;;;5.10;84.90;;;4.16;72.01;93860.34;6126829;23;20181;-86
2022/02/02 07:54:36;;;;;;;6.80;2.42;;;5.10;84.70;;;4.29;72.00;93884.88;6080571;23;20201;-85
2022/02/02 07:57:26;;;;;;;6.03;2.38;;;5.20;84.80;;;4.31;72.08;93865.53;6105751;23;20511;-85
2022/02/02 07:59:59;;;;;;;5.82;2.00;;;5.20;84.80;;;4.28;71.72;93865.88;6104491;23;20232;-84
2022/02/02 08:02:54;;;;;;;7.10;2.65;;;5.20;84.80;;;4.42;71.75;93907.59;6103748;23;20169;-86
2022/02/02 08:05:22;;;;;;;7.32;2.33;;;5.30;84.70;;;4.29;71.61;93869.28;6127610;23;20201;-85
2022/02/02 08:10:29;;;;;;;6.97;2.45;;;5.30;84.70;;;4.43;71.65;93884.06;6104367;23;20193;-85
2022/02/02 08:13:08;;;;;;;8.23;2.33;;;5.30;84.60;;;4.35;71.95;93894.53;6126312;23;20181;-86
2022/02/02 08:15:40;;;;;;;9.02;2.33;;;5.40;84.80;;;4.44;71.30;93916.84;6081850;23;20209;-86
2022/02/02 08:18:08;;;;;;;4.03;2.22;;;5.40;84.60;;;4.39;71.21;93920.94;6102321;23;20204;-85
2022/02/02 08:20:36;;;;;;;6.47;2.15;;;5.40;84.50;;;4.38;71.10;93899.38;6127860;23;20753;-86
2022/02/02 08:23:04;;;;;;;5.43;1.98;;;5.40;83.80;;;4.53;71.48;93927.13;6151416;23;20184;-85
2022/02/02 08:25:33;;;;;;;5.18;2.10;;;5.40;84.60;;;4.46;71.21;93935.63;6102792;23;20260;-86
2022/02/02 08:28:04;;;;;;;7.45;2.30;;;5.50;84.50;;;4.54;70.92;93924.38;6103050;23;20185;-86
2022/02/02 08:30:33;;;;;;;8.48;2.08;;;5.40;84.50;;;4.51;70.93;93914.31;6126847;23;20502;-86
2022/02/02 08:33:03;;;;;;;4.22;1.92;;;5.50;84.40;;;4.61;71.35;93930.47;6128003;23;20616;-86
2022/02/02 08:35:36;;;;;;;7.25;1.95;;;5.50;84.40;;;4.64;70.83;93945.66;6129875;23;20292;-86
2022/02/02 08:40:57;;;;;;;6.28;1.77;;;5.60;84.00;;;4.58;70.74;93937.78;6108794;23;20197;-87
2022/02/02 08:43:38;;;;;;;7.45;2.10;;;5.60;84.10;;;4.66;71.39;93961.06;6152795;23;20287;-87
2022/02/02 08:46:11;;;;;;;5.50;1.80;;;5.60;84.50;;;4.88;71.31;93981.94;6082994;23;20204;-87
2022/02/02 08:48:43;;;;;;;6.57;1.80;;;5.70;84.70;;;4.88;71.17;93969.78;6152590;23;20265;-86
2022/02/02 08:51:15;;;;;;;6.07;1.95;;;5.70;84.60;;;4.94;70.88;93966.44;6130503;23;20193;-87
2022/02/02 08:59:10;;;;;;;6.00;2.20;;;5.90;84.50;;;5.11;70.52;93966.25;6152962;23;20191;-85
2022/02/02 09:01:39;;;;;;;2.80;1.65;;;6.00;84.40;;;5.16;70.46;93969.09;6106898;23;20173;-86
2022/02/02 09:06:53;;;;;;;4.30;1.80;;;6.10;84.10;;;5.21;70.32;93979.78;6127410;23;20199;-85
2022/02/02 09:09:39;;;;;;;5.57;2.30;;;6.10;84.10;;;5.29;70.42;93984.84;6128100;23;20233;-87
2022/02/02 09:23:30;;;;;;;4.47;2.17;;;6.30;83.90;;;5.50;70.19;94008.50;6128932;23;20651;-86
2022/02/02 09:33:58;;;;;;;4.78;1.90;;;6.40;81.70;;;4.92;68.12;94029.94;6130976;23;20192;-85
2022/02/02 09:36:28;;;;;;;5.55;1.90;;;6.30;81.70;;;4.70;67.92;94013.47;6131186;23;20177;-85
2022/02/02 09:39:06;;;;;;;4.68;1.88;;;6.10;81.60;;;4.58;67.90;94013.91;6105015;23;20562;-86
2022/02/02 09:41:46;;;;;;;5.95;2.00;;;5.90;81.30;;;4.44;68.07;94027.66;6130714;23;20212;-84
2022/02/02 09:44:21;;;;;;;4.55;2.13;;;5.80;81.30;;;4.32;69.09;94024.66;6108905;23;20197;-85
2022/02/02 09:49:29;;;;;;;5.93;2.30;;;5.60;82.70;;;4.59;71.33;94032.88;6107310;23;20190;-86
2022/02/02 09:52:12;;;;;;;4.10;1.90;;;5.60;83.60;;;4.74;71.34;94017.34;6108351;23;20189;-85
2022/02/02 09:54:58;;;;;;;4.90;2.40;;;5.60;84.10;;;4.96;71.18;94039.03;6086054;23;20197;-84
2022/02/02 09:57:53;;;;;;;7.22;2.40;;;5.70;84.40;;;5.08;71.27;94036.78;6134231;23;20177;-84
2022/02/02 10:03:35;;;;;;;5.45;2.65;;;5.90;84.20;;;5.12;70.67;94045.84;6134049;23;20177;-85
2022/02/02 10:14:35;;;;;;;10.38;2.53;;;6.10;83.90;;;5.18;70.43;94044.31;6130381;23;20300;-87
2022/02/02 10:17:09;;;;;;;6.10;2.20;;;6.10;83.80;;;5.02;69.94;94032.31;6106710;23;20676;-87
2022/02/02 10:19:38;;;;;;;5.55;2.45;;;6.10;83.40;;;4.91;68.81;94033.56;6107156;23;20212;-88
2022/02/02 10:22:29;;;;;;;4.05;1.80;;;6.10;82.60;;;4.74;67.70;94064.88;6130925;23;20174;-87
2022/02/02 10:25:00;;;;;;;3.08;1.50;;;6.00;82.10;;;4.48;67.43;94075.69;6128603;23;20202;-89
2022/02/02 10:27:35;;;;;;;4.00;1.65;;;5.90;81.20;;;4.33;67.84;94078.22;6105687;23;20205;-86
2022/02/02 10:30:19;;;;;;;2.25;1.40;;;5.80;82.10;;;4.09;68.77;94085.19;6155284;23;20280;-89
2022/02/02 10:32:51;;;;;;;2.40;1.70;;;5.60;81.50;;;4.04;69.21;94084.09;6153867;23;20178;-90
2022/02/02 10:35:39;;;;;;;2.90;1.60;;;5.50;81.80;;;4.04;69.64;94087.50;6130091;23;20197;-90
2022/02/02 10:38:26;;;;;;;2.60;1.63;;;5.40;82.10;;;3.87;69.91;94070.41;6130062;23;20608;-89
2022/02/02 10:41:16;;;;;;;2.55;1.77;;;5.20;82.30;;;3.90;70.23;94096.03;6130991;23;20196;-88
2022/02/02 10:43:58;;;;;;;2.30;1.73;;;5.20;82.60;;;4.00;70.46;94084.44;6130329;23;20177;-87
2022/02/02 10:46:41;;;;;;;3.58;1.95;;;5.10;83.90;;;4.01;70.67;94077.47;6131693;23;20259;-88
2022/02/02 10:49:26;;;;;;;5.97;2.33;;;5.10;83.50;;;4.14;70.53;94095.06;6129777;23;20196;-90
2022/02/02 10:52:28;;;;;;;3.78;1.83;;;5.10;83.60;;;4.21;70.89;94100.34;6130192;23;20184;-89
2022/02/02 10:59:02;;;;;;;4.22;2.10;;;5.20;83.60;;;4.31;70.34;94106.94;6107343;23;20173;-88
2022/02/02 11:01:35;;;;;;;5.53;2.28;;;5.40;83.60;;;4.39;69.85;94113.84;6112073;23;20177;-86
2022/02/02 11:06:54;;;;;;;5.22;1.45;;;5.30;82.60;;;4.21;68.01;94154.88;6109927;23;20197;-86
2022/02/02 11:09:22;;;;;;;9.02;1.92;;;5.20;82.90;;;3.98;68.39;94153.06;6129803;23;20201;-87
2022/02/02 11:11:56;;;;;;;2.35;1.50;;;5.20;82.00;;;3.99;68.77;94167.63;6130823;23;20177;-87
2022/02/02 11:14:44;;;;;;;3.00;1.38;;;5.00;82.30;;;3.93;69.01;94156.16;6105399;23;20209;-87
2022/02/02 11:17:48;;;;;;;2.05;1.23;;;4.90;82.80;;;3.98;69.02;94151.25;6106024;23;20174;-88
2022/02/02 11:20:18;;;;;;;2.08;1.38;;;4.90;82.90;;;3.93;69.23;94127.63;6105920;23;20846;-89
2022/02/02 11:22:57;;;;;;;1.30;1.20;;;4.90;83.00;;;3.86;69.43;94134.47;6129087;23;20174;-87
2022/02/02 11:25:33;;;;;;;1.13;1.00;;;4.90;83.00;;;3.89;69.88;94149.66;6105619;23;20288;-86
2022/02/02 11:28:05;;;;;;;1.38;1.10;;;4.90;83.20;;;3.89;69.80;94139.28;6154205;23;20177;-87
2022/02/02 11:30:40;;;;;;;3.05;1.48;;;4.90;83.30;;;3.84;69.77;94139.00;6129883;23;20200;-87
2022/02/02 11:33:14;;;;;;;2.92;1.55;;;4.90;83.20;;;3.94;69.67;94162.13;6104011;23;20182;-87
2022/02/02 11:35:50;;;;;;;1.90;1.35;;;4.90;83.20;;;3.80;69.94;94141.13;6128957;23;20208;-87
2022/02/02 11:38:31;;;;;;;1.75;1.40;;;4.90;83.30;;;3.93;70.11;94147.53;6151127;23;20224;-86
2022/02/02 11:41:34;;;;;;;3.17;1.60;;;4.90;83.30;;;3.84;70.59;94139.00;6104094;23;20202;-87
2022/02/02 11:44:18;;;;;;;2.40;1.60;;;4.90;83.50;;;3.96;70.49;94155.00;6152550;23;20189;-86
2022/02/02 11:47:22;;;;;;;2.97;1.30;;;4.90;83.90;;;4.04;70.71;94149.78;6106403;23;20197;-86
2022/02/02 11:50:05;;;;;;;2.53;1.80;;;4.90;84.20;;;4.28;70.38;94177.38;6132342;23;20198;-86
2022/02/02 11:52:53;;;;;;;3.58;1.88;;;5.00;84.30;;;4.35;70.41;94155.94;6106097;23;20174;-87
2022/02/02 11:55:22;;;;;;;4.97;1.63;;;5.10;84.40;;;4.63;70.23;94174.41;6130221;23;20197;-87
2022/02/02 11:58:18;;;;;;;5.43;1.60;;;5.20;84.90;;;4.67;69.21;94196.44;6128611;23;20184;-87
2022/02/02 12:06:56;;;;;;;4.25;1.98;;;5.40;84.50;;;4.58;69.25;94193.09;6129584;23;20239;-85
2022/02/02 12:09:57;;;;;;;7.68;2.10;;;5.40;83.60;;;4.60;69.50;94179.94;6110006;23;20199;-85
2022/02/02 12:21:28;;;;;;;5.65;2.20;;;5.60;83.40;;;4.84;69.00;94206.75;6129644;23;20280;-83
2022/02/02 12:58:06;;;;;;;6.68;2.38;;;5.90;83.20;;;4.97;69.97;94243.34;6131491;23;20519;-85
2022/02/02 13:01:07;;;;;;;8.43;2.00;;;5.90;83.50;;;5.04;69.87;94265.06;6130843;23;20197;-85
2022/02/02 13:03:29;;;;;;;5.53;2.08;;;5.90;83.60;;;5.06;69.64;94283.88;6153570;23;20177;-84
2022/02/02 13:05:57;;;;;;;9.18;2.38;;;5.90;83.20;;;5.00;69.32;94258.56;6128428;23;20233;-84
2022/02/02 13:08:25;;;;;;;4.60;1.95;;;6.00;83.00;;;5.08;69.51;94283.72;6153422;23;20177;-85
2022/02/02 13:10:52;;;;;;;3.63;1.88;;;6.00;83.00;;;5.04;69.82;94261.63;6129900;23;20199;-85
2022/02/02 13:13:27;;;;;;;5.60;1.98;;;6.00;83.40;;;5.13;70.79;94269.19;6130021;23;20173;-85
2022/02/02 13:16:17;;;;;;;7.13;1.95;;;6.00;83.80;;;5.26;70.69;94275.59;6077492;23;20204;-85
2022/02/02 13:18:50;;;;;;;6.38;2.13;;;6.00;83.90;;;5.37;70.30;94270.00;6078446;23;20177;-86
2022/02/02 13:24:02;;;;;;;6.43;1.90;;;6.20;84.00;;;5.41;70.47;94255.66;6075137;23;20185;-83
2022/02/02 13:26:37;;;;;;;4.47;1.98;;;6.20;84.20;;;5.54;70.24;94268.06;6075430;23;20289;-84
2022/02/02 13:29:28;;;;;;;5.82;2.17;;;6.30;84.10;;;5.66;70.44;94276.25;6077321;23;20225;-84
2022/02/02 13:32:13;;;;;;;7.78;2.20;;;6.50;84.20;;;5.80;70.32;94285.06;6076054;23;20488;-84
2022/02/02 13:34:57;;;;;;;4.30;2.17;;;6.50;84.50;;;5.89;69.75;94296.19;6075696;23;20657;-84
2022/02/02 13:37:55;;;;;;;4.85;2.03;;;6.60;84.00;;;5.87;68.96;94290.34;6078840;23;20182;-84
2022/02/02 13:57:43;;;;;;;7.03;2.53;;;6.60;83.70;;;5.76;69.22;94305.44;6099774;23;20577;-85
2022/02/02 14:06:36;;;;;;;4.22;1.90;;;6.60;83.70;;;5.82;69.62;94324.72;6079365;23;20679;-85
2022/02/02 14:11:47;;;;;;;4.47;1.90;;;6.70;82.80;;;5.77;68.65;94329.66;6100018;23;20204;-87
2022/02/02 14:31:14;;;;;;;5.60;1.88;;;6.60;81.80;;;5.27;67.54;94344.81;6105083;23;20170;-86
2022/02/02 14:33:59;;;;;;;5.03;2.00;;;6.50;81.30;;;5.07;68.18;94367.88;6082496;23;20601;-86
2022/02/02 14:36:33;;;;;;;6.72;2.20;;;6.30;81.30;;;4.89;68.49;94381.13;6125798;23;20261;-86
2022/02/02 14:39:18;;;;;;;6.93;1.80;;;6.20;81.30;;;4.70;68.60;94377.13;6101738;23;20525;-84
2022/02/02 14:42:06;;;;;;;7.53;1.85;;;6.00;81.50;;;4.47;68.73;94378.66;6101355;23;20623;-85
2022/02/02 14:44:38;;;;;;;5.53;2.08;;;5.90;81.40;;;4.41;68.97;94394.13;6105088;23;20190;-84
2022/02/02 14:47:47;;;;;;;7.32;2.15;;;5.80;81.50;;;4.31;69.42;94376.13;6085015;23;20264;-85
2022/02/02 14:53:24;;;;;;;6.75;1.85;;;5.60;81.90;;;4.28;70.20;94389.44;6124731;23;20178;-85
2022/02/02 15:09:54;;;;;;;8.23;2.38;;;5.40;82.80;;;4.25;70.52;94434.72;6126109;23;20222;-84
2022/02/02 15:31:53;;;;;;;8.38;2.60;;;5.30;82.50;;;4.07;69.87;94493.78;6073154;23;20185;-82
2022/02/02 15:34:44;;;;;;;2.92;1.80;;;5.30;82.50;;;4.06;70.04;94490.34;6149571;23;20252;-82
2022/02/02 15:59:22;;;;;;;5.75;2.03;;;4.80;82.30;;;3.46;70.71;94577.78;6149835;23;20577;-83
2022/02/02 16:04:38;;;;;;;5.63;2.33;;;4.70;82.60;;;3.39;70.49;94576.75;6149393;23;20217;-82
2022/02/02 16:07:09;;;;;;;8.00;2.05;;;4.60;82.60;;;3.41;70.59;94579.22;6099665;23;20269;-83
2022/02/02 16:09:56;;;;;;;3.53;1.85;;;4.60;82.40;;;3.38;70.57;94588.09;6124192;23;20198;-85
2022/02/02 16:12:31;;;;;;;5.93;2.40;;;4.60;82.40;;;3.32;70.96;94599.91;6124545;23;20181;-84
2022/02/02 16:15:14;;;;;;;7.25;2.22;;;4.50;82.70;;;3.31;71.32;94611.25;6124439;23;20284;-83
2022/02/02 16:31:41;;;;;;;4.95;2.05;;;4.50;83.60;;;3.48;71.43;94632.88;6103229;23;20513;-83
2022/02/02 16:36:51;;;;;;;5.70;2.25;;;4.50;83.50;;;3.40;70.88;94609.50;6077875;23;20499;-83
2022/02/02 16:39:24;;;;;;;4.57;2.03;;;4.50;83.30;;;3.42;70.91;94630.91;6101158;23;20535;-84
2022/02/02 16:44:39;;;;;;;5.53;1.85;;;4.50;83.10;;;3.32;70.67;94651.75;6099131;23;20202;-82
2022/02/02 16:47:07;;;;;;;4.43;1.98;;;4.50;83.00;;;3.31;71.10;94650.13;6052419;23;20240;-82
2022/02/02 16:49:50;;;;;;;3.60;1.80;;;4.40;83.00;;;3.22;71.11;94638.09;6079048;23;20648;-82
2022/02/02 16:52:22;;;;;;;5.45;1.98;;;4.40;83.00;;;3.31;70.95;94668.28;6075844;23;20261;-82
2022/02/02 16:54:51;;;;;;;4.20;2.20;;;4.40;83.10;;;3.19;71.37;94649.56;6076939;23;20249;-83
2022/02/02 17:30:33;;;;;;;6.03;2.33;;;4.20;83.10;;;2.98;71.67;94717.28;6091469;23;20249;-85
2022/02/02 17:33:12;;;;;;;6.00;2.40;;;4.20;83.20;;;3.00;71.54;94725.72;6148433;23;20178;-84
2022/02/02 17:36:11;;;;;;;4.35;2.08;;;4.20;83.20;;;3.01;71.98;94724.75;6099888;23;20200;-84
2022/02/02 18:19:21;;;;;;;4.32;2.40;;;4.20;82.90;;;3.00;71.17;94781.91;6126090;23;20205;-84
2022/02/02 18:21:49;;;;;;;4.57;2.30;;;4.20;83.00;;;2.97;71.00;94783.00;6125969;23;20174;-83
2022/02/02 18:24:23;;;;;;;7.80;2.35;;;4.20;82.80;;;2.85;70.76;94761.69;6101769;23;20257;-83
2022/02/02 18:27:01;;;;;;;5.28;2.47;;;4.20;82.80;;;2.95;71.06;94782.34;6103123;23;20225;-84
2022/02/02 18:32:38;;;;;;;6.75;2.47;;;4.20;82.70;;;2.92;71.01;94799.94;6126193;23;20229;-84
2022/02/02 18:35:12;;;;;;;5.70;3.10;;;4.10;82.60;;;2.81;70.65;94801.81;6131975;23;20194;-83
2022/02/02 18:48:40;;;;;;;4.45;2.45;;;4.00;82.50;;;2.74;70.95;94831.03;6129154;23;20232;-83
2022/02/02 18:53:57;;;;;;;7.68;2.55;;;4.00;82.50;;;2.71;70.92;94843.31;6103852;23;20173;-84
2022/02/02 18:59:28;;;;;;;6.60;2.47;;;3.90;82.50;;;2.67;70.73;94841.16;6146626;23;20190;-84
2022/02/02 19:39:11;;;;;;;8.48;2.47;;;3.60;82.60;;;2.29;70.80;94869.66;6081087;23;20184;-84
2022/02/02 19:52:58;;;;;;;7.03;2.60;;;3.60;83.40;;;2.52;71.86;94885.63;6080922;23;20178;-85
2022/02/02 19:55:36;;;;;;;7.85;3.35;;;3.60;83.60;;;2.55;71.76;94885.38;6107446;23;20197;-85
2022/02/02 20:11:43;;;;;;;6.75;2.90;;;3.90;83.80;;;2.90;71.38;94906.31;6100481;23;20201;-85
2022/02/02 20:14:13;;;;;;;5.88;2.63;;;3.90;83.80;;;2.95;71.24;94908.47;6058207;23;20213;-85
2022/02/02 20:16:41;;;;;;;5.65;2.72;;;4.00;83.70;;;2.98;71.44;94903.81;6076181;23;20179;-85
2022/02/02 20:19:11;;;;;;;7.72;2.83;;;4.00;83.60;;;3.03;71.28;94916.34;6076531;23;20205;-85
2022/02/02 20:21:47;;;;;;;9.30;2.70;;;4.10;83.60;;;3.06;71.04;94916.03;6125316;23;20182;-85
2022/02/02 20:24:15;;;;;;;4.88;2.67;;;4.00;83.40;;;3.03;70.77;94921.53;6076740;23;20201;-86
2022/02/02 20:26:47;;;;;;;9.05;2.72;;;4.10;84.20;;;3.05;70.89;94917.00;6077045;23;20178;-85
2022/02/02 20:29:16;;;;;;;5.35;2.75;;;4.20;83.40;;;3.09;70.94;94930.47;6077595;23;20265;-84
2022/02/02 20:31:44;;;;;;;8.20;2.97;;;4.30;83.50;;;3.05;70.64;94924.78;6076675;23;20178;-86
2022/02/02 20:34:13;;;;;;;5.35;2.88;;;4.20;83.30;;;3.07;70.85;94945.38;6053312;23;20201;-85
2022/02/02 20:36:40;;;;;;;6.45;2.30;;;4.20;83.30;;;3.08;70.92;94942.63;6076623;23;20178;-86
2022/02/02 20:39:25;;;;;;;6.78;2.67;;;4.20;83.20;;;3.12;70.51;94943.97;6099993;23;20205;-85
2022/02/02 20:41:56;;;;;;;6.28;2.35;;;4.20;83.10;;;3.09;70.66;94949.47;6103747;23;20179;-85
2022/02/02 20:44:41;;;;;;;7.00;2.53;;;4.30;83.20;;;3.10;70.59;94947.66;6076587;23;20198;-85
2022/02/02 21:14:46;;;;;;;4.28;2.40;;;4.20;82.80;;;3.03;70.51;95002.66;6111383;23;20306;-86
2022/02/02 21:17:20;;;;;;;7.93;2.50;;;4.10;82.70;;;2.97;70.56;94992.06;6124363;23;20170;-86
2022/02/02 21:20:02;;;;;;;3.90;2.10;;;4.20;83.60;;;2.98;70.44;95002.28;6126041;23;20204;-86
2022/02/02 21:22:34;;;;;;;5.65;2.97;;;4.20;82.80;;;2.99;70.47;95006.50;6125866;23;20174;-86
2022/02/02 21:25:09;;;;;;;6.32;2.40;;;4.20;82.80;;;2.94;70.51;95000.94;6102493;23;20205;-86
2022/02/02 21:27:40;;;;;;;5.38;2.58;;;4.20;82.70;;;2.97;70.43;95005.84;6104406;23;20593;-87
2022/02/02 21:30:10;;;;;;;9.15;2.95;;;4.20;82.70;;;2.99;70.12;95024.66;6126169;23;20204;-85
2022/02/02 21:32:38;;;;;;;4.30;2.38;;;4.20;82.60;;;2.97;70.22;95023.16;6126434;23;20557;-86
2022/02/02 21:35:07;;;;;;;8.13;2.30;;;4.30;82.60;;;2.93;69.93;95024.38;6102499;23;20221;-86
2022/02/02 21:37:37;;;;;;;5.15;2.42;;;4.20;82.50;;;2.93;69.91;95024.38;6101521;23;20182;-85
2022/02/02 21:40:16;;;;;;;3.05;2.10;;;4.10;82.40;;;2.92;70.26;95038.28;6126555;23;20197;-86
2022/02/02 21:42:46;;;;;;;4.70;2.20;;;4.10;82.50;;;2.89;70.20;95034.22;6104786;23;20181;-86
2022/02/02 21:45:15;;;;;;;4.95;2.13;;;4.10;82.50;;;2.96;70.29;95040.47;6126787;23;20202;-86
2022/02/02 21:47:43;;;;;;;5.13;2.72;;;4.10;83.30;;;2.92;70.31;95040.88;6126681;23;20233;-86
2022/02/02 21:50:15;;;;;;;6.43;2.95;;;4.10;82.60;;;2.93;70.11;95039.94;6150387;23;20194;-86
2022/02/02 21:52:44;;;;;;;6.22;2.80;;;4.10;82.60;;;2.94;70.34;95045.00;6101726;23;20229;-85
2022/02/02 21:55:12;;;;;;;8.23;2.83;;;4.10;82.70;;;3.00;70.40;95053.94;6102696;23;20194;-86
2022/02/02 21:57:41;;;;;;;6.35;2.80;;;4.10;82.70;;;2.96;70.11;95055.22;6125382;23;20241;-86
2022/02/02 22:00:11;;;;;;;7.50;3.63;;;4.20;82.90;;;3.04;70.21;95066.50;6126160;23;20194;-86
2022/02/02 22:02:40;;;;;;;4.95;2.53;;;4.10;82.80;;;3.02;70.22;95057.22;6126646;23;20216;-86
2022/02/02 22:05:09;;;;;;;7.22;2.90;;;4.20;82.70;;;3.09;69.97;95065.25;6101780;23;20641;-85
2022/02/02 22:07:37;;;;;;;7.22;2.92;;;4.30;82.80;;;3.06;69.99;95058.56;6126222;23;20171;-84
2022/02/02 22:10:07;;;;;;;7.55;3.20;;;4.20;82.80;;;3.11;70.21;95079.69;6126085;23;20190;-86
2022/02/02 22:12:37;;;;;;;6.13;3.00;;;4.20;82.70;;;3.12;70.34;95065.78;6126368;23;20206;-85
2022/02/02 22:15:10;;;;;;;8.18;3.15;;;4.20;82.70;;;3.09;70.10;95066.06;6126327;23;20202;-86
2022/02/02 22:17:45;;;;;;;8.85;3.42;;;4.20;82.70;;;3.09;70.34;95070.41;6078582;23;20182;-85
2022/02/02 22:20:16;;;;;;;7.32;3.17;;;4.20;82.60;;;3.07;70.07;95073.16;6077438;23;20201;-84
2022/02/02 22:22:48;;;;;;;8.20;3.20;;;4.30;82.70;;;3.10;69.99;95064.28;6101564;23;20233;-86
2022/02/02 22:25:18;;;;;;;7.95;2.90;;;4.20;82.60;;;3.09;70.05;95057.47;6053786;23;20194;-85
2022/02/02 22:27:46;;;;;;;7.03;3.15;;;4.20;82.60;;;3.09;70.12;95058.31;6100660;23;20177;-85
2022/02/02 22:30:14;;;;;;;6.15;2.72;;;4.30;82.60;;;3.16;69.69;95071.50;6077585;23;20716;-86
2022/02/02 22:32:42;;;;;;;8.23;3.20;;;4.30;82.60;;;3.10;69.91;95059.09;6077074;23;20174;-85
2022/02/02 22:35:10;;;;;;;4.93;2.50;;;4.30;82.50;;;3.15;69.66;95062.06;6077737;23;20549;-86
2022/02/02 22:37:38;;;;;;;4.88;2.72;;;4.30;82.50;;;3.13;69.92;95072.59;6077269;23;20177;-85
2022/02/02 22:40:07;;;;;;;7.13;3.00;;;4.30;82.60;;;3.19;70.03;95072.03;6101603;23;20222;-85
2022/02/02 22:42:36;;;;;;;4.95;2.45;;;4.30;82.50;;;3.17;69.84;95068.78;6078251;23;20177;-86